createdAt,value
2022-12-05T00:01:34.674Z,15.70
2022-12-05T00:04:01.017Z,15.70
2022-12-05T00:06:27.312Z,16.01
2022-12-05T00:08:53.571Z,16.33
2022-12-05T00:11:19.924Z,15.85
2022-12-05T00:13:46.173Z,15.14
2022-12-05T00:16:12.457Z,14.79
2022-12-05T00:18:38.725Z,15.32
2022-12-05T00:21:04.975Z,15.16
2022-12-05T00:23:31.217Z,14.83
2022-12-05T00:25:57.480Z,14.90
2022-12-05T00:28:23.734Z,13.94
2022-12-05T00:30:49.987Z,14.32
2022-12-05T00:33:16.252Z,14.39
2022-12-05T00:35:42.505Z,14.16
2022-12-05T00:38:08.783Z,14.20
2022-12-05T00:40:35.049Z,13.88
2022-12-05T00:43:01.311Z,14.41
2022-12-05T00:45:27.584Z,14.83
2022-12-05T00:47:53.832Z,14.79
2022-12-05T00:50:20.078Z,15.20
2022-12-05T00:52:46.357Z,16.46
2022-12-05T00:55:12.611Z,16.09
2022-12-05T00:57:38.863Z,15.85
2022-12-05T01:00:05.147Z,16.62
2022-12-05T01:02:31.418Z,16.83
2022-12-05T01:04:57.686Z,16.63
2022-12-05T01:07:23.947Z,17.18
2022-12-05T01:09:50.208Z,17.49
2022-12-05T01:12:16.502Z,16.95
2022-12-05T01:14:42.750Z,17.67
2022-12-05T01:17:09.082Z,18.44
2022-12-05T01:19:35.401Z,17.93
2022-12-05T01:22:01.645Z,17.81
2022-12-05T01:24:27.930Z,17.65
2022-12-05T01:26:54.191Z,17.51
2022-12-05T01:29:20.547Z,17.09
2022-12-05T01:31:46.926Z,17.08
2022-12-05T01:34:13.190Z,16.89
2022-12-05T01:36:39.472Z,17.39
2022-12-05T01:39:05.737Z,17.37
2022-12-05T01:41:31.989Z,17.90
2022-12-05T01:43:58.239Z,17.19
2022-12-05T01:46:24.566Z,17.19
2022-12-05T01:48:50.904Z,17.25
2022-12-05T01:51:17.174Z,17.76
2022-12-05T01:53:43.434Z,18.12
2022-12-05T01:56:09.720Z,17.24
2022-12-05T01:58:36.001Z,17.47
2022-12-05T02:01:02.359Z,17.58
2022-12-05T02:03:28.687Z,17.80
2022-12-05T02:05:54.950Z,18.57
2022-12-05T02:08:21.285Z,18.81
2022-12-05T02:10:47.623Z,18.60
2022-12-05T02:13:13.913Z,18.66
2022-12-05T02:15:40.164Z,18.81
2022-12-05T02:18:06.403Z,18.74
2022-12-05T02:20:32.676Z,19.36
2022-12-05T02:22:58.975Z,19.33
2022-12-05T02:25:25.237Z,19.36
2022-12-05T02:27:51.495Z,19.67
2022-12-05T02:30:17.733Z,19.78
2022-12-05T02:32:44.004Z,19.85
2022-12-05T02:35:10.255Z,20.05
2022-12-05T02:37:36.533Z,20.35
2022-12-05T02:40:02.914Z,21.11
2022-12-05T02:42:29.161Z,19.86
2022-12-05T02:44:55.427Z,20.34
2022-12-05T02:47:21.690Z,19.65
2022-12-05T02:49:47.943Z,20.05
2022-12-05T02:52:14.215Z,20.39
2022-12-05T02:54:40.475Z,20.83
2022-12-05T02:57:06.826Z,21.02
2022-12-05T02:59:33.112Z,21.13
2022-12-05T03:01:59.354Z,20.69
2022-12-05T03:04:25.686Z,21.24
2022-12-05T03:06:52.015Z,20.31
2022-12-05T03:09:18.257Z,20.05
2022-12-05T03:11:44.563Z,19.50
2022-12-05T03:14:10.833Z,20.25
2022-12-05T03:16:37.179Z,20.02
2022-12-05T03:19:03.475Z,20.43
2022-12-05T03:21:29.749Z,20.24
2022-12-05T03:23:56.022Z,19.23
2022-12-05T03:26:22.313Z,19.95
2022-12-05T03:28:48.586Z,19.85
2022-12-05T03:31:14.921Z,19.66
2022-12-05T03:33:41.286Z,19.89
2022-12-05T03:36:07.541Z,19.91
2022-12-05T03:38:33.825Z,19.90
2022-12-05T03:41:00.105Z,18.95
2022-12-05T03:43:26.361Z,18.24
2022-12-05T03:45:52.677Z,17.97
2022-12-05T03:48:19.001Z,17.22
2022-12-05T03:50:45.246Z,18.70
2022-12-05T03:53:19.760Z,18.12
2022-12-05T03:55:46.872Z,17.17
2022-12-05T03:58:13.150Z,17.63
2022-12-05T04:00:39.416Z,17.98
2022-12-05T04:03:05.762Z,17.81
2022-12-05T04:05:32.205Z,17.62
2022-12-05T04:07:58.515Z,17.63
2022-12-05T04:10:24.808Z,18.06
2022-12-05T04:12:51.077Z,18.42
2022-12-05T04:15:17.356Z,19.04
2022-12-05T04:17:43.636Z,18.60
2022-12-05T04:20:09.898Z,17.93
2022-12-05T04:22:36.160Z,18.45
2022-12-05T04:25:02.408Z,18.72
2022-12-05T04:27:28.689Z,19.14
2022-12-05T04:29:55.277Z,18.77
2022-12-05T04:32:21.681Z,19.40
2022-12-05T04:34:47.938Z,19.62
2022-12-05T04:37:14.207Z,19.28
2022-12-05T04:39:40.490Z,19.46
2022-12-05T04:42:06.793Z,19.02
2022-12-05T04:44:33.072Z,19.49
2022-12-05T04:46:59.354Z,18.87
2022-12-05T04:49:25.644Z,19.36
2022-12-05T04:51:51.920Z,19.06
2022-12-05T04:54:18.188Z,18.56
2022-12-05T04:56:44.549Z,18.40
2022-12-05T04:59:10.817Z,18.77
2022-12-05T05:01:37.139Z,19.07
2022-12-05T05:04:03.471Z,18.83
2022-12-05T05:06:29.752Z,18.90
2022-12-05T05:08:56.018Z,19.10
2022-12-05T05:11:22.279Z,20.03
2022-12-05T05:13:48.536Z,20.12
2022-12-05T05:16:14.868Z,19.32
2022-12-05T05:18:41.194Z,19.96
2022-12-05T05:21:07.449Z,19.68
2022-12-05T05:23:33.718Z,19.31
2022-12-05T05:25:59.978Z,18.76
2022-12-05T05:28:26.255Z,20.60
2022-12-05T05:30:52.569Z,19.96
2022-12-05T05:33:18.905Z,19.38
2022-12-05T05:35:45.187Z,19.86
2022-12-05T05:38:11.437Z,19.70
2022-12-05T05:40:37.707Z,19.80
2022-12-05T05:43:03.980Z,20.08
2022-12-05T05:45:30.238Z,20.31
2022-12-05T05:47:56.513Z,19.95
2022-12-05T05:50:22.781Z,19.72
2022-12-05T05:52:49.053Z,19.48
2022-12-05T05:55:15.305Z,19.16
2022-12-05T05:57:41.592Z,19.45
2022-12-05T06:00:07.956Z,19.57
2022-12-05T06:02:34.343Z,19.47
2022-12-05T06:05:00.664Z,19.19
2022-12-05T06:07:26.928Z,19.08
2022-12-05T06:09:53.208Z,19.31
2022-12-05T06:12:19.466Z,18.53
2022-12-05T06:14:45.726Z,18.84
2022-12-05T06:17:11.981Z,18.71
2022-12-05T06:19:38.271Z,19.47
2022-12-05T06:22:04.544Z,19.50
2022-12-05T06:24:30.830Z,19.52
2022-12-05T06:26:57.084Z,19.44
2022-12-05T06:29:26.208Z,18.73
2022-12-05T06:31:53.820Z,19.69
2022-12-05T06:34:20.141Z,19.59
2022-12-05T06:36:46.426Z,18.89
2022-12-05T06:39:12.701Z,18.95
2022-12-05T06:41:38.972Z,18.93
2022-12-05T06:44:05.244Z,19.28
2022-12-05T06:46:31.532Z,19.37
2022-12-05T06:48:57.810Z,20.06
2022-12-05T06:51:24.061Z,18.48
2022-12-05T06:53:50.319Z,18.79
2022-12-05T06:56:16.601Z,18.28
2022-12-05T06:58:42.850Z,18.44
2022-12-05T07:01:09.206Z,19.60
2022-12-05T07:03:35.559Z,19.54
2022-12-05T07:06:01.834Z,19.59
2022-12-05T07:08:28.083Z,19.42
2022-12-05T07:10:54.454Z,20.02
2022-12-05T07:13:20.722Z,20.29
2022-12-05T07:15:46.992Z,20.57
2022-12-05T07:18:13.281Z,19.76
2022-12-05T07:21:03.877Z,20.54
2022-12-05T07:23:25.788Z,20.44
2022-12-05T07:25:52.065Z,20.07
2022-12-05T07:28:18.311Z,20.13
2022-12-05T07:30:44.587Z,20.67
2022-12-05T07:33:10.892Z,20.64
2022-12-05T07:35:37.152Z,20.68
2022-12-05T07:38:03.430Z,21.51
2022-12-05T07:40:29.691Z,21.48
2022-12-05T07:42:55.937Z,21.38
2022-12-05T07:45:22.187Z,21.72
2022-12-05T07:47:48.480Z,21.11
2022-12-05T07:50:14.805Z,19.93
2022-12-05T07:52:41.075Z,20.55
2022-12-05T07:55:07.337Z,20.91
2022-12-05T07:57:33.600Z,21.05
2022-12-05T08:00:00.064Z,21.22
2022-12-05T08:02:26.671Z,21.03
2022-12-05T08:04:52.969Z,20.45
2022-12-05T08:07:19.237Z,20.94
2022-12-05T08:09:45.517Z,19.73
2022-12-05T08:12:11.864Z,19.95
2022-12-05T08:14:38.133Z,20.59
2022-12-05T08:17:04.439Z,20.54
2022-12-05T08:19:30.727Z,20.62
2022-12-05T08:21:57.007Z,20.50
2022-12-05T08:24:23.273Z,21.08
2022-12-05T08:26:49.556Z,20.16
2022-12-05T08:29:15.833Z,20.88
2022-12-05T08:31:42.116Z,20.56
2022-12-05T08:34:08.372Z,21.91
2022-12-05T08:36:34.641Z,23.97
2022-12-05T08:39:00.923Z,22.91
2022-12-05T08:41:27.194Z,23.02
2022-12-05T08:43:53.466Z,21.14
2022-12-05T08:46:19.785Z,20.19
2022-12-05T08:48:46.123Z,20.01
2022-12-05T08:51:12.387Z,20.63
2022-12-05T08:53:44.102Z,20.61
2022-12-05T08:56:11.033Z,19.94
2022-12-05T08:58:37.306Z,19.82
2022-12-05T09:01:03.622Z,19.04
2022-12-05T09:03:29.923Z,19.11
2022-12-05T09:05:56.175Z,19.29
2022-12-05T09:08:22.500Z,19.18
2022-12-05T09:10:48.803Z,19.80
2022-12-05T09:13:15.073Z,20.77
2022-12-05T09:15:41.414Z,21.01
2022-12-05T09:18:07.709Z,21.87
2022-12-05T09:20:33.977Z,24.17
2022-12-05T09:23:00.241Z,25.45
2022-12-05T09:25:26.511Z,25.03
2022-12-05T09:27:52.754Z,24.77
2022-12-05T09:30:19.107Z,25.63
2022-12-05T09:32:45.408Z,26.03
2022-12-05T09:35:11.681Z,27.70
2022-12-05T09:37:39.702Z,27.90
2022-12-05T09:40:06.427Z,28.57
2022-12-05T09:42:32.710Z,26.51
2022-12-05T09:44:59.233Z,24.57
2022-12-05T09:47:25.705Z,22.44
2022-12-05T09:49:52.020Z,20.46
2022-12-05T09:52:18.265Z,20.94
2022-12-05T09:54:44.586Z,20.08
2022-12-05T09:57:10.872Z,19.47
2022-12-05T09:59:37.150Z,19.63
2022-12-05T10:02:03.451Z,19.11
2022-12-05T10:04:29.809Z,18.79
2022-12-05T10:06:56.129Z,19.48
2022-12-05T10:09:22.397Z,19.25
2022-12-05T10:11:48.687Z,19.25
2022-12-05T10:14:15.058Z,19.60
2022-12-05T10:16:41.391Z,19.55
2022-12-05T10:19:07.685Z,19.22
2022-12-05T10:21:33.981Z,19.16
2022-12-05T10:24:00.302Z,19.15
2022-12-05T10:26:26.577Z,18.57
2022-12-05T10:28:52.872Z,18.02
2022-12-05T10:31:19.242Z,18.53
2022-12-05T10:33:45.563Z,17.73
2022-12-05T10:36:11.822Z,17.11
2022-12-05T10:38:38.095Z,17.69
2022-12-05T10:41:04.372Z,18.04
2022-12-05T10:43:30.653Z,18.73
2022-12-05T10:45:56.933Z,18.39
2022-12-05T10:48:23.230Z,18.14
2022-12-05T10:50:49.522Z,17.73
2022-12-05T10:53:15.817Z,18.11
2022-12-05T10:55:54.756Z,17.61
2022-12-05T10:58:28.424Z,17.90
2022-12-05T11:00:54.734Z,18.04
2022-12-05T11:03:21.659Z,17.40
2022-12-05T11:05:47.954Z,17.48
2022-12-05T11:08:14.348Z,17.33
2022-12-05T11:10:40.661Z,17.60
2022-12-05T11:13:06.941Z,17.98
2022-12-05T11:15:33.206Z,16.93
2022-12-05T11:17:59.485Z,16.34
2022-12-05T11:20:25.750Z,15.92
2022-12-05T11:22:52.042Z,15.16
2022-12-05T11:25:18.295Z,15.33
2022-12-05T11:27:44.648Z,15.82
2022-12-05T11:30:10.918Z,15.62
2022-12-05T11:32:37.173Z,15.86
2022-12-05T11:35:03.449Z,16.09
2022-12-05T11:37:29.711Z,17.01
2022-12-05T11:39:55.986Z,17.21
2022-12-05T11:42:22.250Z,16.59
2022-12-05T11:44:48.501Z,17.34
2022-12-05T11:47:14.881Z,17.24
2022-12-05T11:49:41.199Z,17.90
2022-12-05T11:52:07.494Z,18.22
2022-12-05T11:55:03.941Z,18.46
2022-12-05T11:57:20.030Z,18.69
2022-12-05T11:59:46.296Z,18.58
2022-12-05T12:02:12.625Z,18.52
2022-12-05T12:04:38.946Z,18.16
2022-12-05T12:07:05.215Z,17.79
2022-12-05T12:09:31.489Z,17.79
2022-12-05T12:11:57.741Z,18.02
2022-12-05T12:14:24.025Z,18.58
2022-12-05T12:16:50.354Z,17.66
2022-12-05T12:19:16.696Z,18.21
2022-12-05T12:21:42.936Z,16.93
2022-12-05T12:24:09.227Z,17.17
2022-12-05T12:26:35.502Z,16.44
2022-12-05T12:29:01.800Z,15.81
2022-12-05T12:31:28.073Z,14.35
2022-12-05T12:33:54.409Z,14.69
2022-12-05T12:36:20.676Z,15.24
2022-12-05T12:38:51.102Z,14.52
2022-12-05T12:41:17.787Z,14.41
2022-12-05T12:43:59.377Z,14.75
2022-12-05T12:46:25.749Z,14.45
2022-12-05T12:48:52.025Z,13.89
2022-12-05T12:51:18.327Z,14.03
2022-12-05T12:53:44.595Z,14.42
2022-12-05T12:56:10.849Z,14.61
2022-12-05T12:58:37.157Z,14.44
2022-12-05T13:01:03.515Z,15.38
2022-12-05T13:03:29.821Z,14.67
2022-12-05T13:05:56.094Z,15.13
2022-12-05T13:08:22.485Z,14.72
2022-12-05T13:10:48.810Z,14.69
2022-12-05T13:13:15.077Z,14.62
2022-12-05T13:15:41.370Z,14.05
2022-12-05T13:18:07.621Z,13.86
2022-12-05T13:20:33.938Z,13.16
2022-12-05T13:23:04.743Z,13.13
2022-12-05T13:25:34.052Z,12.12
2022-12-05T13:28:00.333Z,12.46
2022-12-05T13:30:26.599Z,12.08
2022-12-05T13:32:52.858Z,10.92
2022-12-05T13:35:19.119Z,9.86
2022-12-05T13:37:45.407Z,9.95
2022-12-05T13:40:11.672Z,10.89
2022-12-05T13:42:37.947Z,9.97
2022-12-05T13:45:04.232Z,10.55
2022-12-05T13:47:30.505Z,10.44
2022-12-05T13:49:57.102Z,10.19
2022-12-05T13:52:23.642Z,9.86
2022-12-05T13:54:49.901Z,10.20
2022-12-05T13:57:16.512Z,9.39
2022-12-05T13:59:42.821Z,9.96
2022-12-05T14:02:09.171Z,9.95
2022-12-05T14:04:35.551Z,10.04
2022-12-05T14:07:01.825Z,9.50
2022-12-05T14:09:28.123Z,9.51
2022-12-05T14:11:54.382Z,8.73
2022-12-05T14:14:20.647Z,8.66
2022-12-05T14:16:46.983Z,8.92
2022-12-05T14:19:13.249Z,8.04
2022-12-05T14:21:39.499Z,8.31
2022-12-05T14:24:05.773Z,7.95
2022-12-05T14:26:32.116Z,8.42
2022-12-05T14:28:58.370Z,8.40
2022-12-05T14:31:24.613Z,8.46
2022-12-05T14:33:50.910Z,8.16
2022-12-05T14:36:17.193Z,8.42
2022-12-05T14:38:43.455Z,8.30
2022-12-05T14:41:09.737Z,8.40
2022-12-05T14:43:36.021Z,7.73
2022-12-05T14:46:02.344Z,7.75
2022-12-05T14:48:28.623Z,7.68
2022-12-05T14:50:54.876Z,7.83
2022-12-05T14:53:21.159Z,7.97
2022-12-05T14:55:47.397Z,7.97
2022-12-05T14:58:13.633Z,7.52
2022-12-05T15:00:43.756Z,7.04
2022-12-05T15:03:12.810Z,7.56
2022-12-05T15:05:39.086Z,8.00
2022-12-05T15:08:05.402Z,7.63
2022-12-05T15:10:31.686Z,8.10
2022-12-05T15:12:57.950Z,8.13
2022-12-05T15:15:24.281Z,7.29
2022-12-05T15:17:50.599Z,7.24
2022-12-05T15:20:16.873Z,7.21
2022-12-05T15:22:43.144Z,7.22
2022-12-05T15:25:09.417Z,7.55
2022-12-05T15:27:35.791Z,7.46
2022-12-05T15:30:02.102Z,8.10
2022-12-05T15:32:28.669Z,8.20
2022-12-05T15:34:55.020Z,8.67
2022-12-05T15:37:21.285Z,8.99
2022-12-05T15:39:47.543Z,9.08
2022-12-05T15:42:13.819Z,9.13
2022-12-05T15:44:40.090Z,9.44
2022-12-05T15:47:06.341Z,8.96
2022-12-05T15:49:32.653Z,10.39
2022-12-05T15:51:58.926Z,10.49
2022-12-05T15:54:29.098Z,10.40
2022-12-05T15:56:55.565Z,10.65
2022-12-05T15:59:21.853Z,10.68
2022-12-05T16:01:48.288Z,10.29
2022-12-05T16:04:14.582Z,10.24
2022-12-05T16:06:40.926Z,10.81
2022-12-05T16:09:11.336Z,11.14
2022-12-05T16:11:38.139Z,11.62
2022-12-05T16:14:04.499Z,12.03
2022-12-05T16:16:30.803Z,11.31
2022-12-05T16:18:57.144Z,10.66
2022-12-05T16:21:23.417Z,10.32
2022-12-05T16:23:49.669Z,9.98
2022-12-05T16:26:15.910Z,10.00
2022-12-05T16:28:42.258Z,9.88
2022-12-05T16:31:08.556Z,10.19
2022-12-05T16:33:37.705Z,10.50
2022-12-05T16:36:08.167Z,9.98
2022-12-05T16:38:34.420Z,10.15
2022-12-05T16:41:00.670Z,11.25
2022-12-05T16:43:26.941Z,10.82
2022-12-05T16:45:53.195Z,10.88
2022-12-05T16:48:19.477Z,10.86
2022-12-05T16:50:45.732Z,11.78
2022-12-05T16:53:12.012Z,12.25
2022-12-05T16:55:38.302Z,13.19
2022-12-05T16:58:04.549Z,13.82
2022-12-05T17:00:30.807Z,14.47
2022-12-05T17:03:18.453Z,15.08
2022-12-05T17:05:43.428Z,14.96
2022-12-05T17:08:09.748Z,15.29
2022-12-05T17:10:36.083Z,14.73
2022-12-05T17:13:02.377Z,16.03
2022-12-05T17:15:28.660Z,17.14
2022-12-05T17:17:54.980Z,16.51
2022-12-05T17:20:21.247Z,15.73
2022-12-05T17:22:47.487Z,15.20
2022-12-05T17:25:13.768Z,13.88
2022-12-05T17:27:40.045Z,13.51
2022-12-05T17:30:06.294Z,13.66
2022-12-05T17:32:32.656Z,13.90
2022-12-05T17:35:03.705Z,14.74
2022-12-05T17:37:32.809Z,14.97
2022-12-05T17:39:59.473Z,14.72
2022-12-05T17:42:25.959Z,14.44
2022-12-05T17:44:52.349Z,14.53
2022-12-05T17:47:18.657Z,15.48
2022-12-05T17:49:44.973Z,15.43
2022-12-05T17:52:21.390Z,15.46
2022-12-05T17:54:48.305Z,14.88
2022-12-05T17:57:14.573Z,14.36
2022-12-05T17:59:40.833Z,14.44
2022-12-05T18:02:07.109Z,15.22
2022-12-05T18:04:33.416Z,15.64
2022-12-05T18:06:59.788Z,16.25
2022-12-05T18:09:26.046Z,16.30
2022-12-05T18:11:52.307Z,17.65
2022-12-05T18:14:18.592Z,19.04
2022-12-05T18:16:44.925Z,18.03
2022-12-05T18:19:11.230Z,16.52
2022-12-05T18:21:37.486Z,15.98
2022-12-05T18:24:03.774Z,16.66
2022-12-05T18:26:30.064Z,18.09
2022-12-05T18:28:56.335Z,18.34
2022-12-05T18:31:22.652Z,18.71
2022-12-05T18:33:48.945Z,18.31
2022-12-05T18:36:15.202Z,19.19
2022-12-05T18:38:41.486Z,19.08
2022-12-05T18:41:07.745Z,18.71
2022-12-05T18:43:34.024Z,17.43
2022-12-05T18:46:00.451Z,17.41
2022-12-05T18:48:46.950Z,18.38
2022-12-05T18:51:13.022Z,19.08
2022-12-05T18:53:39.275Z,21.36
2022-12-05T18:56:21.487Z,22.77
2022-12-05T18:58:49.314Z,22.68
2022-12-05T19:01:15.819Z,20.55
2022-12-05T19:03:42.149Z,18.44
2022-12-05T19:06:08.433Z,17.34
2022-12-05T19:08:34.743Z,16.34
2022-12-05T19:11:01.002Z,17.42
2022-12-05T19:13:27.369Z,17.66
2022-12-05T19:15:53.635Z,17.87
2022-12-05T19:18:19.941Z,18.46
2022-12-05T19:20:46.289Z,18.25
2022-12-05T19:23:12.546Z,18.60
2022-12-05T19:25:38.810Z,18.63
2022-12-05T19:28:05.071Z,18.04
2022-12-05T19:30:31.332Z,18.26
2022-12-05T19:32:57.582Z,18.34
2022-12-05T19:35:23.836Z,18.49
2022-12-05T19:37:50.105Z,18.49
2022-12-05T19:40:16.390Z,18.17
2022-12-05T19:42:42.658Z,18.77
2022-12-05T19:45:12.239Z,19.46
2022-12-05T19:47:41.212Z,19.59
2022-12-05T19:50:07.490Z,18.28
2022-12-05T19:52:33.749Z,18.93
2022-12-05T19:55:00.039Z,18.19
2022-12-05T19:57:31.055Z,19.11
2022-12-05T19:59:57.935Z,18.64
2022-12-05T20:02:24.566Z,18.51
2022-12-05T20:04:50.869Z,19.40
2022-12-05T20:07:17.323Z,18.90
2022-12-05T20:09:43.577Z,18.98
2022-12-05T20:12:09.852Z,18.04
2022-12-05T20:14:36.124Z,18.17
2022-12-05T20:17:02.481Z,19.40
2022-12-05T20:19:28.762Z,20.14
2022-12-05T20:21:55.035Z,18.46
2022-12-05T20:24:21.327Z,17.63
2022-12-05T20:26:47.604Z,18.06
2022-12-05T20:29:13.881Z,18.55
2022-12-05T20:31:40.187Z,17.60
2022-12-05T20:34:06.445Z,17.14
2022-12-05T20:36:32.695Z,17.15
2022-12-05T20:38:59.066Z,17.99
2022-12-05T20:41:25.528Z,19.67
2022-12-05T20:43:51.807Z,19.81
2022-12-05T20:46:18.156Z,18.26
2022-12-05T20:48:44.483Z,19.45
2022-12-05T20:51:10.731Z,19.37
2022-12-05T20:53:37.015Z,18.71
2022-12-05T20:56:04.377Z,18.22
2022-12-05T20:58:30.654Z,18.86
2022-12-05T21:00:56.961Z,18.07
2022-12-05T21:03:23.274Z,18.17
2022-12-05T21:05:49.531Z,17.52
2022-12-05T21:08:15.839Z,17.71
2022-12-05T21:10:42.158Z,16.88
2022-12-05T21:13:08.414Z,16.07
2022-12-05T21:15:34.714Z,16.16
2022-12-05T21:18:00.993Z,15.84
2022-12-05T21:20:27.277Z,16.72
2022-12-05T21:22:53.519Z,16.92
2022-12-05T21:25:19.803Z,17.43
2022-12-05T21:27:46.095Z,16.67
2022-12-05T21:30:12.373Z,15.41
2022-12-05T21:32:38.682Z,13.70
2022-12-05T21:35:04.953Z,13.26
2022-12-05T21:37:31.344Z,13.50
2022-12-05T21:39:57.848Z,14.93
2022-12-05T21:42:24.305Z,15.76
2022-12-05T21:44:50.581Z,17.10
2022-12-05T21:47:16.842Z,17.52
2022-12-05T21:49:43.121Z,16.87
2022-12-05T21:52:09.407Z,18.00
2022-12-05T21:54:35.707Z,17.74
2022-12-05T21:57:01.971Z,17.52
2022-12-05T21:59:28.264Z,16.95
2022-12-05T22:01:54.574Z,16.86
2022-12-05T22:04:20.885Z,15.74
2022-12-05T22:06:47.151Z,15.81
2022-12-05T22:09:13.405Z,15.91
2022-12-05T22:11:39.752Z,16.10
2022-12-05T22:14:06.030Z,16.51
2022-12-05T22:16:33.414Z,17.23
2022-12-05T22:19:00.028Z,15.63
2022-12-05T22:21:26.277Z,16.12
2022-12-05T22:23:52.545Z,15.81
2022-12-05T22:26:18.823Z,14.94
2022-12-05T22:28:45.086Z,15.11
2022-12-05T22:31:11.425Z,14.58
2022-12-05T22:33:37.758Z,14.88
2022-12-05T22:36:04.009Z,15.68
2022-12-05T22:38:30.276Z,15.71
2022-12-05T22:40:56.537Z,15.51
2022-12-05T22:43:22.787Z,14.86
2022-12-05T22:45:49.044Z,15.28
2022-12-05T22:48:15.317Z,14.80
2022-12-05T22:50:41.578Z,15.52
2022-12-05T22:53:07.858Z,15.33
2022-12-05T22:55:34.135Z,14.61
2022-12-05T22:58:00.388Z,14.92
2022-12-05T23:00:26.644Z,15.20
2022-12-05T23:02:52.944Z,15.20
2022-12-05T23:05:19.227Z,15.03
2022-12-05T23:07:45.508Z,15.21
2022-12-05T23:10:11.806Z,14.43
2022-12-05T23:12:38.093Z,13.60
2022-12-05T23:15:04.347Z,14.09
2022-12-05T23:17:30.610Z,13.69
2022-12-05T23:19:57.187Z,13.80
2022-12-05T23:22:23.734Z,13.43
2022-12-05T23:24:50.012Z,12.49
2022-12-05T23:27:16.273Z,12.64
2022-12-05T23:29:42.549Z,12.66
2022-12-05T23:32:08.802Z,13.04
2022-12-05T23:34:35.055Z,13.01
2022-12-05T23:37:01.329Z,12.96
2022-12-05T23:39:27.612Z,13.04
2022-12-05T23:41:53.867Z,12.52
2022-12-05T23:44:20.109Z,12.37
2022-12-05T23:46:46.470Z,11.63
2022-12-05T23:49:12.820Z,12.47
2022-12-05T23:51:39.059Z,13.94
2022-12-05T23:54:05.305Z,14.83
2022-12-05T23:56:31.557Z,18.81
2022-12-05T23:58:57.929Z,20.16
